Weather at Harry Mwanga Nkumbula International Airport

Public forecast

Using degrees Celsius for public forecast. Weather courtesy of forecast.io.

Closest aviation weather report (METAR) to Harry Mwanga Nkumbula International Airport

Report is more than 6 hours old.

Closest report is Kasane Airport, 37.7 nm (69.9 km) W.

2022/11/14 15:00 (retrieved 2 years ago)

FBKE 141500Z 11007KT 060V150 9999 SCT030 FEW035CB 31/15 Q1013

Closest aviation forecast (TAF) to Harry Mwanga Nkumbula International Airport

Forecast is more than 12 hours old.

Closest forecast is Chimoio Airport, 440.4 nm (815.6 km) ESE.

2023/02/22 18:00 (retrieved 1 year ago)

TAF FQCH 221600Z 2218/2318 24008KT 9999 SCT018 FEW025CB TX25/2313Z TN19/2303Z PROB30 TEMPO 2220/2302 4000 TSRA FEW020CB BECMG 2306/2308 17010KT BECMG 2315/2317 28008KT